Time;durP1;ratioP1;P1;durP2;ratioP2;P2;SDS_P1;SDS_P2;PMS_P1;PMS_P2;Temp;Humidity;BMP_temperature;BMP_pressure;BME280_temperature;BME280_humidity;BME280_pressure;Samples;Min_cycle;Max_cycle;Signal;HPM_P1;HPM_P2
2022/09/05 00:02:01;;;;;;;5.25;2.55;;;16.60;65.90;;;;;;4871590;29;20074;-73
2022/09/05 00:04:32;;;;;;;4.43;2.88;;;16.70;65.50;;;;;;4909846;29;20047;-73
2022/09/05 00:07:18;;;;;;;4.45;2.10;;;16.60;65.70;;;;;;4908082;29;20032;-73
2022/09/05 00:09:56;;;;;;;4.80;2.45;;;16.50;65.80;;;;;;4911673;29;20024;-73
2022/09/05 00:12:24;;;;;;;4.78;2.63;;;16.50;66.10;;;;;;4895255;29;20039;-73
2022/09/05 00:15:34;;;;;;;4.43;2.60;;;16.50;66.10;;;;;;4897922;29;20472;-73
2022/09/05 00:18:24;;;;;;;4.35;2.47;;;16.50;66.10;;;;;;4903377;29;20048;-73
2022/09/05 00:21:05;;;;;;;8.15;2.80;;;16.50;66.40;;;;;;4902949;29;20127;-74
2022/09/05 00:23:31;;;;;;;4.47;2.45;;;16.50;66.10;;;;;;4906500;29;20034;-73
2022/09/05 00:26:25;;;;;;;6.10;2.22;;;16.50;66.20;;;;;;4906288;29;20044;-73
2022/09/05 00:29:07;;;;;;;4.00;2.33;;;16.50;66.80;;;;;;4906639;29;20341;-73
2022/09/05 00:32:08;;;;;;;6.43;2.78;;;16.40;66.70;;;;;;4903112;29;20087;-73
2022/09/05 00:34:34;;;;;;;;;;;16.30;66.70;;;;;;4897142;29;20455;-73
2022/09/05 00:37:00;;;;;;;5.75;2.60;;;16.40;66.80;;;;;;4907620;29;19911;-73
2022/09/05 00:39:32;;;;;;;6.30;2.47;;;16.30;66.80;;;;;;4909833;29;20031;-73
2022/09/05 00:42:05;;;;;;;4.95;2.47;;;16.30;67.10;;;;;;4902941;29;20028;-74
2022/09/05 00:44:36;;;;;;;3.58;2.50;;;16.30;67.10;;;;;;4904337;29;20464;-73
2022/09/05 00:47:08;;;;;;;4.93;2.63;;;16.30;67.00;;;;;;4903857;29;20028;-73
2022/09/05 00:49:52;;;;;;;4.05;2.35;;;16.20;67.50;;;;;;4911222;29;20054;-73
2022/09/05 00:52:32;;;;;;;6.28;2.60;;;16.20;67.40;;;;;;4904450;29;20029;-73
2022/09/05 00:55:22;;;;;;;3.65;2.25;;;16.10;67.40;;;;;;4910730;29;20059;-74
2022/09/05 00:57:59;;;;;;;4.38;2.60;;;16.10;67.60;;;;;;4904700;29;20032;-73
2022/09/05 01:00:52;;;;;;;5.63;2.85;;;16.20;67.30;;;;;;4908030;29;20405;-73
2022/09/05 01:03:51;;;;;;;5.45;2.42;;;16.10;67.60;;;;;;4901348;29;20040;-73
2022/09/05 01:06:38;;;;;;;4.57;2.40;;;16.20;67.60;;;;;;4896117;29;20033;-73
2022/09/05 01:09:13;;;;;;;4.35;2.45;;;16.20;67.30;;;;;;4896522;29;20044;-73
2022/09/05 01:11:56;;;;;;;4.30;2.25;;;16.10;67.50;;;;;;4913848;29;20139;-72
2022/09/05 01:14:49;;;;;;;5.45;2.63;;;16.10;67.60;;;;;;4908284;29;20032;-74
2022/09/05 01:17:48;;;;;;;5.57;2.83;;;16.10;67.40;;;;;;4911040;29;20032;-73
2022/09/05 01:20:42;;;;;;;5.90;2.53;;;16.20;67.40;;;;;;4914575;29;20024;-73
2022/09/05 01:23:31;;;;;;;4.97;2.70;;;16.10;67.50;;;;;;4913432;29;20369;-72
2022/09/05 01:26:11;;;;;;;3.97;2.58;;;16.10;67.20;;;;;;4916780;29;20235;-73
2022/09/05 01:28:54;;;;;;;5.28;2.40;;;16.10;67.30;;;;;;4918243;29;20054;-72
2022/09/05 01:31:46;;;;;;;3.70;2.10;;;16.10;67.40;;;;;;4909586;29;20036;-72
2022/09/05 01:34:22;;;;;;;7.35;2.47;;;16.00;67.50;;;;;;4900392;29;20043;-72
2022/09/05 01:37:05;;;;;;;4.30;2.58;;;16.00;67.90;;;;;;4911066;29;20409;-74
2022/09/05 01:39:56;;;;;;;6.57;2.45;;;16.00;68.10;;;;;;4897783;29;20051;-73
2022/09/05 01:42:37;;;;;;;5.00;2.78;;;16.00;67.90;;;;;;4910928;29;20029;-72
2022/09/05 01:45:19;;;;;;;4.28;2.40;;;16.00;68.10;;;;;;4900012;29;20448;-73
2022/09/05 01:48:20;;;;;;;6.07;2.50;;;16.00;67.90;;;;;;4908815;29;20149;-73
2022/09/05 01:51:01;;;;;;;4.63;2.55;;;15.90;68.20;;;;;;4900018;29;20044;-73
2022/09/05 01:53:52;;;;;;;5.30;2.80;;;15.80;68.50;;;;;;4899326;29;20064;-72
2022/09/05 01:56:33;;;;;;;6.13;2.72;;;15.80;68.60;;;;;;4912688;29;20135;-72
2022/09/05 01:59:16;;;;;;;4.45;2.45;;;15.80;68.80;;;;;;4901404;29;20401;-72
2022/09/05 02:02:04;;;;;;;4.50;2.55;;;15.80;68.70;;;;;;4912191;29;20057;-73
2022/09/05 02:04:51;;;;;;;5.05;2.40;;;15.80;68.50;;;;;;4911654;29;20068;-73
2022/09/05 02:07:53;;;;;;;4.43;2.30;;;15.90;68.50;;;;;;4913691;29;20425;-73
2022/09/05 02:10:47;;;;;;;6.07;2.85;;;15.90;68.60;;;;;;4905539;29;20028;-73
2022/09/05 02:13:39;;;;;;;4.63;2.72;;;15.80;68.80;;;;;;4909639;29;20103;-73
2022/09/05 02:16:25;;;;;;;5.22;2.42;;;15.90;68.80;;;;;;4910190;29;20475;-73
2022/09/05 02:19:06;;;;;;;4.90;2.70;;;15.90;68.70;;;;;;4909553;29;20044;-73
2022/09/05 02:21:37;;;;;;;4.40;2.22;;;15.90;68.80;;;;;;4907164;29;20028;-73
2022/09/05 02:24:19;;;;;;;6.97;2.72;;;15.80;68.90;;;;;;4906985;29;20056;-74
2022/09/05 02:27:09;;;;;;;5.32;2.63;;;15.70;69.40;;;;;;4910656;29;20404;-73
2022/09/05 02:29:54;;;;;;;6.72;2.70;;;15.70;69.50;;;;;;4901508;29;20040;-73
2022/09/05 02:32:30;;;;;;;4.50;2.60;;;15.70;69.50;;;;;;4900144;29;20060;-73
2022/09/05 02:35:19;;;;;;;6.60;2.85;;;15.80;69.50;;;;;;4913976;29;20487;-73
2022/09/05 02:37:50;;;;;;;4.93;2.53;;;15.80;69.50;;;;;;4875148;29;20044;-73
2022/09/05 02:40:19;;;;;;;5.28;2.40;;;15.70;69.50;;;;;;4911979;29;20032;-74
2022/09/05 02:43:12;;;;;;;3.83;2.45;;;15.70;69.70;;;;;;4910250;29;20044;-73
2022/09/05 02:45:52;;;;;;;3.65;2.25;;;15.70;69.70;;;;;;4908144;29;20441;-74
2022/09/05 02:48:39;;;;;;;4.22;2.45;;;15.80;69.50;;;;;;4910641;29;20032;-73
2022/09/05 02:51:30;;;;;;;3.78;2.28;;;15.80;69.70;;;;;;4908789;29;20024;-73
2022/09/05 02:54:18;;;;;;;4.50;2.15;;;15.80;69.60;;;;;;4912873;29;20135;-74
2022/09/05 02:56:57;;;;;;;4.03;2.25;;;15.70;69.90;;;;;;4907514;29;20056;-73
2022/09/05 02:59:40;;;;;;;6.85;2.85;;;15.60;70.10;;;;;;4905113;29;20052;-73
2022/09/05 03:02:33;;;;;;;4.55;2.28;;;15.60;70.30;;;;;;4909301;29;20460;-73
2022/09/05 03:05:04;;;;;;;4.40;2.47;;;15.60;70.50;;;;;;4910219;29;20036;-73
2022/09/05 03:08:03;;;;;;;6.90;2.75;;;15.60;70.60;;;;;;4906096;29;20036;-73
2022/09/05 03:10:57;;;;;;;5.05;2.45;;;15.60;70.70;;;;;;4908711;29;20024;-73
2022/09/05 03:13:56;;;;;;;5.55;2.38;;;15.50;70.80;;;;;;4908582;29;20020;-73
2022/09/05 03:16:58;;;;;;;5.28;2.30;;;15.50;70.70;;;;;;4901979;29;20369;-73
2022/09/05 03:20:04;;;;;;;4.43;2.55;;;15.60;70.60;;;;;;4881290;29;20044;-73
2022/09/05 03:22:43;;;;;;;9.90;3.03;;;15.50;70.80;;;;;;4910127;29;20099;-72
2022/09/05 03:25:31;;;;;;;4.65;2.47;;;15.50;70.90;;;;;;4909831;29;20032;-73
2022/09/05 03:28:33;;;;;;;4.72;2.17;;;15.50;71.10;;;;;;4904773;29;20059;-74
2022/09/05 03:31:43;;;;;;;5.15;2.30;;;15.50;71.10;;;;;;4915233;29;20206;-72
2022/09/05 03:34:45;;;;;;;4.75;2.58;;;15.50;71.30;;;;;;4907182;29;20028;-72
2022/09/05 03:37:35;;;;;;;5.57;2.80;;;15.50;71.20;;;;;;4909519;29;20032;-73
2022/09/05 03:40:27;;;;;;;8.30;2.70;;;15.40;71.30;;;;;;4905933;29;20024;-73
2022/09/05 03:43:11;;;;;;;;;;;15.50;71.20;;;;;;4907659;29;20321;-73
2022/09/05 03:45:47;;;;;;;5.55;2.55;;;15.50;71.10;;;;;;4911809;29;19915;-73
2022/09/05 03:48:24;;;;;;;7.00;2.53;;;15.60;70.90;;;;;;4907799;29;20072;-72
2022/09/05 03:51:27;;;;;;;3.70;2.38;;;15.50;71.00;;;;;;4906324;29;20036;-73
2022/09/05 03:54:01;;;;;;;4.05;2.45;;;15.50;70.90;;;;;;4904134;29;20036;-74
2022/09/05 03:57:17;;;;;;;6.28;3.08;;;15.50;71.00;;;;;;4893533;29;20036;-74
2022/09/05 04:00:09;;;;;;;5.60;2.40;;;15.50;71.20;;;;;;4847865;29;20062;-73
2022/09/05 04:03:00;;;;;;;5.22;2.47;;;15.50;71.20;;;;;;4837251;29;20102;-72
2022/09/05 04:05:36;;;;;;;4.57;2.70;;;15.50;71.30;;;;;;4886140;29;20036;-73
2022/09/05 04:08:23;;;;;;;4.25;2.45;;;15.50;71.30;;;;;;4894879;29;20495;-72
2022/09/05 04:11:04;;;;;;;5.45;2.38;;;15.40;71.50;;;;;;4897681;29;20024;-72
2022/09/05 04:13:44;;;;;;;4.25;2.47;;;15.40;71.80;;;;;;4912216;29;20036;-72
2022/09/05 04:16:31;;;;;;;4.82;2.58;;;15.40;71.80;;;;;;4903519;29;20096;-72
2022/09/05 04:19:27;;;;;;;4.07;2.47;;;15.40;71.90;;;;;;4901608;29;20128;-71
2022/09/05 04:22:30;;;;;;;5.40;2.65;;;15.40;71.90;;;;;;4900398;29;20037;-71
2022/09/05 04:24:55;;;;;;;5.07;2.65;;;15.40;71.90;;;;;;4897572;29;20333;-71
2022/09/05 04:27:33;;;;;;;7.13;2.75;;;15.40;71.90;;;;;;4906328;29;20032;-69
2022/09/05 04:30:01;;;;;;;6.75;2.88;;;15.40;71.80;;;;;;4914155;29;20043;-69
2022/09/05 04:32:38;;;;;;;5.13;2.88;;;15.40;71.80;;;;;;4914437;29;20028;-69
2022/09/05 04:35:43;;;;;;;4.50;2.88;;;15.40;71.90;;;;;;4898881;29;20553;-70
2022/09/05 04:38:36;;;;;;;4.75;2.72;;;15.40;72.10;;;;;;4901105;29;20415;-69
2022/09/05 04:41:13;;;;;;;5.20;2.75;;;15.30;72.10;;;;;;4915785;29;20095;-70
2022/09/05 04:43:54;;;;;;;6.55;2.65;;;15.40;72.10;;;;;;4903620;29;20096;-70
2022/09/05 04:46:31;;;;;;;4.80;2.70;;;15.50;71.80;;;;;;4899514;29;20096;-70
2022/09/05 04:49:14;;;;;;;4.38;2.45;;;15.50;71.60;;;;;;4910925;29;20038;-70
2022/09/05 04:52:13;;;;;;;3.55;2.30;;;15.50;71.50;;;;;;4908856;29;20095;-69
2022/09/05 04:54:47;;;;;;;5.50;3.00;;;15.50;71.70;;;;;;4894694;29;20426;-70
2022/09/05 04:57:50;;;;;;;5.20;2.53;;;15.60;71.50;;;;;;4903010;29;20060;-70
2022/09/05 05:00:37;;;;;;;4.10;2.15;;;15.60;71.30;;;;;;4890398;29;20052;-70
2022/09/05 05:03:13;;;;;;;5.28;2.67;;;15.70;70.90;;;;;;4908762;29;20127;-70
2022/09/05 05:05:53;;;;;;;4.20;2.40;;;15.80;70.70;;;;;;4909065;29;20346;-70
2022/09/05 05:08:38;;;;;;;4.40;2.70;;;15.80;70.50;;;;;;4917149;29;20519;-69
2022/09/05 05:11:39;;;;;;;5.93;2.83;;;16.00;70.10;;;;;;4907501;29;20039;-70
2022/09/05 05:14:35;;;;;;;5.20;3.10;;;16.00;70.20;;;;;;4880847;29;20123;-70
2022/09/05 05:17:40;;;;;;;4.35;2.35;;;16.10;69.90;;;;;;4911416;29;20201;-71
2022/09/05 05:20:22;;;;;;;4.63;2.67;;;16.10;69.80;;;;;;4907406;29;20468;-70
2022/09/05 05:23:01;;;;;;;4.47;2.50;;;16.20;69.60;;;;;;4908814;29;20130;-70
2022/09/05 05:25:28;;;;;;;4.72;2.58;;;16.30;69.40;;;;;;4912613;29;20024;-70
2022/09/05 05:28:10;;;;;;;4.80;2.75;;;16.30;69.20;;;;;;4911129;29;20111;-71
2022/09/05 05:30:37;;;;;;;6.25;2.80;;;16.40;69.30;;;;;;4905407;29;20060;-70
2022/09/05 05:33:23;;;;;;;6.13;2.75;;;16.40;69.00;;;;;;4908260;29;20024;-69
2022/09/05 05:35:49;;;;;;;6.90;2.40;;;16.40;69.10;;;;;;4909446;29;20123;-69
2022/09/05 05:38:38;;;;;;;5.28;2.78;;;16.50;68.80;;;;;;4910973;29;20028;-70
2022/09/05 05:41:20;;;;;;;5.63;2.53;;;16.50;68.80;;;;;;4913440;29;20079;-70
2022/09/05 05:43:47;;;;;;;6.15;2.72;;;16.50;68.60;;;;;;4913995;29;20368;-71
2022/09/05 05:46:23;;;;;;;5.18;2.60;;;16.60;68.40;;;;;;4906296;29;20087;-71
2022/09/05 05:48:53;;;;;;;4.88;2.85;;;16.70;68.70;;;;;;4904833;29;20032;-70
2022/09/05 05:51:52;;;;;;;5.05;2.75;;;16.70;68.20;;;;;;4910323;29;20049;-70
2022/09/05 05:54:31;;;;;;;5.45;2.92;;;16.80;68.80;;;;;;4910845;29;20373;-70
2022/09/05 05:57:15;;;;;;;4.20;2.35;;;16.80;68.40;;;;;;4906459;29;20035;-71
2022/09/05 05:59:59;;;;;;;6.63;3.03;;;16.80;68.00;;;;;;4907083;29;20051;-70
2022/09/05 06:02:59;;;;;;;6.72;3.30;;;16.90;67.90;;;;;;4903278;29;20450;-70
2022/09/05 06:05:42;;;;;;;4.03;2.35;;;17.00;68.10;;;;;;4903991;29;20032;-70
2022/09/05 06:08:42;;;;;;;5.55;2.53;;;17.00;67.70;;;;;;4908323;29;20050;-71
2022/09/05 06:11:43;;;;;;;7.03;2.78;;;17.00;68.10;;;;;;4907558;29;20386;-70
2022/09/05 06:14:23;;;;;;;;;;;17.00;67.90;;;;;;4896677;29;20475;-70
2022/09/05 06:17:06;;;;;;;5.70;2.75;;;17.00;68.10;;;;;;4914799;29;20303;-70
2022/09/05 06:19:53;;;;;;;5.80;3.15;;;17.00;68.10;;;;;;4896721;29;20029;-70
2022/09/05 06:22:58;;;;;;;6.18;2.95;;;17.00;68.70;;;;;;4895004;29;20111;-70
2022/09/05 06:25:46;;;;;;;5.35;2.83;;;17.10;68.00;;;;;;4905706;29;20035;-71
2022/09/05 06:28:31;;;;;;;6.85;3.08;;;17.10;68.00;;;;;;4910657;29;20032;-70
2022/09/05 06:31:00;;;;;;;4.68;2.42;;;17.20;67.90;;;;;;4902706;29;20426;-70
2022/09/05 06:33:38;;;;;;;5.13;2.75;;;17.30;68.30;;;;;;4910396;29;20032;-70
2022/09/05 06:36:34;;;;;;;4.78;2.65;;;17.50;67.50;;;;;;4905064;29;20035;-71
2022/09/05 06:39:35;;;;;;;5.88;2.58;;;17.60;66.70;;;;;;4904997;29;20028;-70
2022/09/05 06:42:08;;;;;;;5.28;2.33;;;17.80;66.60;;;;;;4901451;29;20488;-70
2022/09/05 06:44:48;;;;;;;7.68;2.92;;;18.00;66.00;;;;;;4903653;29;20035;-70
2022/09/05 06:47:18;;;;;;;5.30;2.50;;;18.20;66.00;;;;;;4907883;29;20028;-70
2022/09/05 06:50:16;;;;;;;6.80;2.60;;;18.40;65.30;;;;;;4911124;29;20042;-72
2022/09/05 06:53:11;;;;;;;5.75;2.58;;;18.50;65.60;;;;;;4907115;29;20034;-71
2022/09/05 06:55:52;;;;;;;4.68;3.00;;;18.40;65.30;;;;;;4899260;29;20056;-71
2022/09/05 06:58:23;;;;;;;7.38;3.10;;;18.30;65.40;;;;;;4906980;29;20032;-71
2022/09/05 07:00:54;;;;;;;5.28;2.95;;;18.50;65.50;;;;;;4900162;29;20056;-71
2022/09/05 07:03:47;;;;;;;5.47;2.60;;;18.40;65.30;;;;;;4906557;29;20036;-71
2022/09/05 07:06:13;;;;;;;4.22;2.63;;;18.40;65.20;;;;;;4914487;29;20039;-71
2022/09/05 07:09:11;;;;;;;7.88;2.80;;;18.50;65.80;;;;;;4901212;29;20415;-73
2022/09/05 07:11:52;;;;;;;6.95;3.13;;;18.60;65.20;;;;;;4908433;29;20036;-72
2022/09/05 07:14:23;;;;;;;4.95;2.70;;;18.60;64.90;;;;;;4910141;29;20099;-70
2022/09/05 07:17:12;;;;;;;4.13;2.40;;;18.70;65.30;;;;;;4910962;29;20051;-73
2022/09/05 07:19:50;;;;;;;7.15;2.78;;;18.80;64.90;;;;;;4902594;29;20075;-70
2022/09/05 07:22:46;;;;;;;6.70;2.80;;;18.70;65.40;;;;;;4900951;29;20036;-70
2022/09/05 07:25:18;;;;;;;8.25;2.75;;;18.90;65.30;;;;;;4902384;29;20040;-71
2022/09/05 07:27:56;;;;;;;4.22;2.55;;;18.90;65.10;;;;;;4908659;29;20044;-70
2022/09/05 07:30:22;;;;;;;6.60;2.80;;;19.00;65.10;;;;;;4898503;29;20033;-70
2022/09/05 07:32:52;;;;;;;3.65;2.40;;;19.00;64.70;;;;;;4906834;29;20024;-71
2022/09/05 07:35:25;;;;;;;6.07;3.15;;;19.10;65.00;;;;;;4906084;29;20469;-71
2022/09/05 07:38:03;;;;;;;5.78;2.72;;;19.20;64.60;;;;;;4905427;29;20092;-73
2022/09/05 07:40:32;;;;;;;9.13;2.85;;;19.30;64.40;;;;;;4899600;29;20086;-73
2022/09/05 07:43:08;;;;;;;5.38;2.92;;;19.40;64.30;;;;;;4911963;29;20024;-73
2022/09/05 07:45:37;;;;;;;6.45;2.90;;;19.40;64.10;;;;;;4903948;29;20444;-74
2022/09/05 07:48:04;;;;;;;6.13;2.90;;;19.50;64.00;;;;;;4905183;29;20361;-73
2022/09/05 07:50:34;;;;;;;5.72;2.70;;;19.70;64.40;;;;;;4898478;29;20113;-73
2022/09/05 07:53:02;;;;;;;7.15;3.20;;;19.90;64.00;;;;;;4903843;29;20040;-73
2022/09/05 07:55:34;;;;;;;4.70;2.92;;;19.80;63.40;;;;;;4910195;29;20031;-73
2022/09/05 07:58:05;;;;;;;5.32;2.80;;;19.90;63.50;;;;;;4910239;29;20040;-73
2022/09/05 08:00:30;;;;;;;5.63;2.85;;;20.20;63.80;;;;;;4911279;29;20063;-72
2022/09/05 08:02:59;;;;;;;5.72;2.97;;;20.40;62.90;;;;;;4907890;29;20729;-74
2022/09/05 08:05:33;;;;;;;5.00;2.88;;;20.50;61.80;;;;;;4911009;29;20348;-73
2022/09/05 08:08:02;;;;;;;5.60;3.10;;;20.40;62.60;;;;;;4904447;29;20048;-73
2022/09/05 08:10:35;;;;;;;5.22;2.80;;;20.60;62.70;;;;;;4911082;29;20099;-73
2022/09/05 08:13:08;;;;;;;4.97;2.95;;;20.80;61.50;;;;;;4908273;29;20043;-71
2022/09/05 08:15:36;;;;;;;5.07;3.00;;;21.00;61.20;;;;;;4899154;29;20045;-71
2022/09/05 08:18:14;;;;;;;4.50;2.60;;;21.00;60.30;;;;;;4906966;29;20360;-72
2022/09/05 08:20:49;;;;;;;5.97;2.78;;;21.20;60.30;;;;;;4905614;29;20087;-73
2022/09/05 08:23:33;;;;;;;5.70;2.60;;;21.30;59.90;;;;;;4905369;29;20473;-72
2022/09/05 08:26:14;;;;;;;4.72;2.63;;;21.40;60.10;;;;;;4895396;29;20044;-73
2022/09/05 08:28:57;;;;;;;5.07;2.50;;;21.80;59.70;;;;;;4908424;29;20137;-73
2022/09/05 08:31:50;;;;;;;5.55;2.72;;;22.10;59.10;;;;;;4903489;29;20128;-73
2022/09/05 08:34:20;;;;;;;5.95;2.60;;;22.00;57.00;;;;;;4903983;29;20446;-74
2022/09/05 08:36:48;;;;;;;4.38;2.58;;;22.20;57.50;;;;;;4908847;29;20028;-73
2022/09/05 08:39:24;;;;;;;5.93;2.65;;;22.50;57.20;;;;;;4906831;29;20107;-72
2022/09/05 08:42:07;;;;;;;5.65;2.90;;;22.40;56.00;;;;;;4904740;29;20036;-74
2022/09/05 08:45:09;;;;;;;6.82;3.00;;;22.00;56.60;;;;;;4906561;29;20032;-74
2022/09/05 08:48:01;;;;;;;5.18;2.58;;;22.50;57.10;;;;;;4907700;29;20031;-74
2022/09/05 08:50:49;;;;;;;7.80;2.83;;;22.90;56.10;;;;;;4901799;29;20377;-73
2022/09/05 08:53:44;;;;;;;4.38;2.80;;;23.20;54.90;;;;;;4912886;29;20393;-74
2022/09/05 08:56:19;;;;;;;5.85;2.60;;;23.20;54.60;;;;;;4905348;29;20048;-73
2022/09/05 08:58:56;;;;;;;10.75;3.05;;;23.00;55.20;;;;;;4905006;29;20048;-75
2022/09/05 09:01:33;;;;;;;6.90;2.95;;;23.10;54.70;;;;;;4894956;29;20028;-74
2022/09/05 09:04:18;;;;;;;6.22;2.78;;;23.50;53.50;;;;;;4906812;29;20324;-74
2022/09/05 09:07:19;;;;;;;4.38;2.67;;;23.70;52.70;;;;;;4903322;29;20076;-74
2022/09/05 09:09:56;;;;;;;4.53;2.60;;;24.10;52.50;;;;;;4900163;29;20032;-74
2022/09/05 09:12:52;;;;;;;5.80;2.70;;;24.30;52.20;;;;;;4905735;29;20089;-73
2022/09/05 09:15:44;;;;;;;6.93;2.70;;;24.00;51.90;;;;;;4905769;29;20480;-72
2022/09/05 09:18:18;;;;;;;4.35;2.38;;;24.00;51.40;;;;;;4906695;29;20342;-73
2022/09/05 09:20:55;;;;;;;7.00;2.22;;;24.00;51.20;;;;;;4903775;29;20017;-73
2022/09/05 09:23:43;;;;;;;5.03;2.60;;;24.40;50.40;;;;;;4905124;29;20433;-69
2022/09/05 09:26:12;;;;;;;5.97;2.38;;;24.60;51.00;;;;;;4908164;29;20553;-69
2022/09/05 09:28:51;;;;;;;5.45;2.38;;;24.80;50.50;;;;;;4904875;29;20037;-70
2022/09/05 09:31:54;;;;;;;3.78;2.42;;;25.00;50.30;;;;;;4902105;29;20024;-71
2022/09/05 09:34:25;;;;;;;9.18;2.58;;;25.20;48.50;;;;;;4894276;29;20100;-69
2022/09/05 09:37:28;;;;;;;4.95;2.25;;;25.00;48.90;;;;;;4907883;29;20055;-70
2022/09/05 09:40:28;;;;;;;6.00;2.60;;;24.90;48.80;;;;;;4902228;29;20432;-70
2022/09/05 09:43:26;;;;;;;4.10;2.47;;;24.50;49.60;;;;;;4901379;29;20443;-71
2022/09/05 09:46:20;;;;;;;6.13;2.55;;;24.70;50.10;;;;;;4895925;29;20380;-74
2022/09/05 09:49:17;;;;;;;3.60;2.40;;;25.00;50.00;;;;;;4905774;29;20029;-74
2022/09/05 09:51:56;;;;;;;5.00;2.90;;;24.50;49.80;;;;;;4898980;29;20108;-73
2022/09/05 09:54:47;;;;;;;6.70;2.65;;;24.80;49.00;;;;;;4902766;29;20099;-72
2022/09/05 09:57:47;;;;;;;4.40;2.55;;;24.80;49.40;;;;;;4904755;29;20040;-74
2022/09/05 10:00:21;;;;;;;5.73;2.37;;;25.40;48.10;;;;;;4905881;29;20497;-74
2022/09/05 10:03:07;;;;;;;5.13;2.13;;;25.50;46.70;;;;;;4912818;29;20362;-75
2022/09/05 10:06:01;;;;;;;6.18;2.60;;;25.60;47.20;;;;;;4902375;29;20460;-75
2022/09/05 10:08:46;;;;;;;4.18;2.47;;;25.80;47.50;;;;;;4902120;29;20033;-73
2022/09/05 10:11:54;;;;;;;8.20;3.05;;;25.20;47.30;;;;;;4914550;29;20123;-75
2022/09/05 10:14:47;;;;;;;27.55;4.85;;;25.80;46.40;;;;;;4915433;29;20047;-75
2022/09/05 10:17:36;;;;;;;5.22;2.50;;;25.60;45.80;;;;;;4915611;29;20039;-76
2022/09/05 10:20:15;;;;;;;6.43;2.47;;;25.90;45.50;;;;;;4912810;29;20546;-76
2022/09/05 10:23:01;;;;;;;7.80;2.70;;;25.80;46.10;;;;;;4907605;29;20031;-75
2022/09/05 10:25:53;;;;;;;6.28;2.47;;;25.60;46.10;;;;;;4902310;29;20394;-74
2022/09/05 10:28:37;;;;;;;4.03;2.67;;;25.90;46.40;;;;;;4907547;29;20047;-76
2022/09/05 10:31:33;;;;;;;6.70;2.45;;;25.80;46.10;;;;;;4902176;29;20032;-77
2022/09/05 10:34:20;;;;;;;7.38;2.45;;;26.10;45.50;;;;;;4898073;29;20410;-76
2022/09/05 10:36:58;;;;;;;9.27;2.85;;;26.40;43.40;;;;;;4906531;29;20580;-75
2022/09/05 10:39:28;;;;;;;4.38;2.22;;;26.60;44.70;;;;;;4908311;29;20079;-72
2022/09/05 10:41:56;;;;;;;4.80;2.43;;;26.80;44.10;;;;;;4900515;29;20024;-76
2022/09/05 10:44:39;;;;;;;4.90;2.35;;;26.80;43.50;;;;;;4908554;29;20500;-74
2022/09/05 10:47:36;;;;;;;4.20;2.40;;;26.60;43.80;;;;;;4899032;29;20433;-73
2022/09/05 10:50:27;;;;;;;5.50;2.40;;;26.50;43.50;;;;;;4899153;29;20033;-73
2022/09/05 10:53:13;;;;;;;;;;;25.90;44.80;;;;;;4905897;29;20368;-73
2022/09/05 10:55:56;;;;;;;4.05;2.28;;;26.00;44.50;;;;;;4880325;29;19953;-74
2022/09/05 10:59:00;;;;;;;7.60;2.45;;;26.80;44.40;;;;;;4903145;29;20036;-73
2022/09/05 11:01:42;;;;;;;4.75;2.30;;;27.10;43.40;;;;;;4898542;29;20043;-72
2022/09/05 11:04:42;;;;;;;3.97;2.17;;;27.00;43.10;;;;;;4904391;29;20447;-73
2022/09/05 11:07:16;;;;;;;3.50;2.40;;;27.90;42.20;;;;;;4906966;29;20076;-73
2022/09/05 11:09:48;;;;;;;4.47;2.30;;;28.00;42.40;;;;;;4903915;29;20099;-77
2022/09/05 11:12:21;;;;;;;4.10;2.10;;;28.20;41.80;;;;;;4911295;29;20024;-76
2022/09/05 11:14:55;;;;;;;7.72;2.72;;;27.40;42.00;;;;;;4905493;29;20341;-76
2022/09/05 11:17:34;;;;;;;4.43;2.42;;;27.70;43.40;;;;;;4901797;29;20016;-76
2022/09/05 11:20:37;;;;;;;3.95;2.35;;;27.70;42.50;;;;;;4904747;29;20142;-73
2022/09/05 11:23:21;;;;;;;4.72;2.20;;;27.60;41.60;;;;;;4901936;29;20548;-76
2022/09/05 11:25:56;;;;;;;3.10;1.98;;;27.70;42.40;;;;;;4909409;29;20527;-76
2022/09/05 11:28:34;;;;;;;3.95;1.98;;;28.00;41.20;;;;;;4901806;29;20115;-71
2022/09/05 11:31:06;;;;;;;6.18;2.20;;;27.90;40.20;;;;;;4901998;29;20513;-71
2022/09/05 16:29:09;;;;;;;2.42;1.50;;;30.70;36.00;;;;;;4910742;29;20175;-72
2022/09/05 16:32:04;;;;;;;4.32;1.48;;;28.90;38.90;;;;;;4898365;29;20415;-73
2022/09/05 16:34:34;;;;;;;3.92;1.60;;;29.50;38.40;;;;;;4904030;29;20039;-73
2022/09/05 16:37:06;;;;;;;2.50;1.80;;;29.60;38.20;;;;;;4897400;29;20058;-73
2022/09/05 16:39:35;;;;;;;2.40;1.80;;;29.70;37.60;;;;;;4904836;29;20040;-73
2022/09/05 16:42:12;;;;;;;6.05;1.77;;;29.90;37.90;;;;;;4906194;29;20064;-72
2022/09/05 16:44:43;;;;;;;4.38;1.67;;;29.90;37.40;;;;;;4936419;23;20123;-83
2022/09/05 16:47:24;;;;;;;4.70;1.80;;;29.00;39.00;;;;;;4901326;29;20094;-83
2022/09/05 16:50:03;;;;;;;3.92;1.70;;;28.50;39.60;;;;;;4910143;29;20581;-83
2022/09/05 16:52:40;;;;;;;4.38;2.50;;;28.20;40.50;;;;;;4914328;29;20493;-82
2022/09/05 16:55:14;;;;;;;5.93;1.90;;;27.80;41.30;;;;;;4938453;29;20130;-83
2022/09/05 16:57:55;;;;;;;4.30;1.98;;;27.30;41.70;;;;;;4930942;29;20104;-82
2022/09/05 17:00:20;;;;;;;3.35;1.75;;;27.30;42.10;;;;;;4908649;29;20032;-82
2022/09/05 17:03:00;;;;;;;3.45;2.17;;;27.10;42.00;;;;;;4932010;29;20046;-82
2022/09/05 17:05:39;;;;;;;4.30;1.95;;;27.00;41.80;;;;;;4910735;29;20891;-82
2022/09/05 17:08:25;;;;;;;3.35;1.90;;;27.00;42.00;;;;;;4915903;29;20205;-83
2022/09/05 17:11:03;;;;;;;2.75;1.83;;;26.90;42.30;;;;;;4931488;29;20115;-82
2022/09/05 17:13:46;;;;;;;4.90;2.00;;;27.00;42.40;;;;;;4899857;29;20027;-83
2022/09/05 17:16:20;;;;;;;4.38;1.92;;;27.00;42.00;;;;;;4909036;29;20460;-83
2022/09/05 17:18:51;;;;;;;4.78;2.22;;;26.80;42.30;;;;;;4931078;29;20036;-82
2022/09/05 17:21:25;;;;;;;3.90;1.95;;;26.50;43.10;;;;;;4896551;29;20028;-82
2022/09/05 17:23:53;;;;;;;5.65;1.92;;;26.10;43.70;;;;;;4913780;29;20061;-82
2022/09/05 17:26:31;;;;;;;5.55;2.00;;;25.40;45.10;;;;;;4897023;29;20276;-82
2022/09/05 17:28:58;;;;;;;3.90;1.80;;;24.90;46.30;;;;;;4894894;29;20450;-83
2022/09/05 17:31:39;;;;;;;3.70;1.90;;;24.60;47.10;;;;;;4898426;29;20380;-82
2022/09/05 17:34:14;;;;;;;11.85;2.05;;;24.40;47.90;;;;;;4920325;29;20468;-81
2022/09/05 17:36:46;;;;;;;4.70;2.13;;;23.90;48.70;;;;;;4911294;29;20039;-82
2022/09/05 17:39:42;;;;;;;4.80;2.30;;;23.70;49.30;;;;;;4899594;29;20017;-81
2022/09/05 17:42:20;;;;;;;3.58;1.77;;;23.50;49.80;;;;;;4894770;29;20126;-82
2022/09/05 17:45:14;;;;;;;9.98;2.42;;;23.20;50.90;;;;;;4911651;29;20099;-81
2022/09/05 17:47:51;;;;;;;5.30;2.30;;;23.00;51.00;;;;;;4893686;29;20476;-82
2022/09/05 17:50:17;;;;;;;3.65;2.13;;;22.90;51.50;;;;;;4912400;29;20104;-81
2022/09/05 17:53:01;;;;;;;4.15;2.20;;;22.70;51.70;;;;;;4889191;29;20030;-81
2022/09/05 17:55:41;;;;;;;5.00;2.40;;;22.60;52.20;;;;;;4906633;29;20099;-83
2022/09/05 17:58:30;;;;;;;4.68;2.42;;;22.50;52.70;;;;;;4909849;29;20104;-83
2022/09/05 18:00:59;;;;;;;3.85;2.13;;;22.40;52.80;;;;;;4909098;29;20099;-82
2022/09/05 18:03:40;;;;;;;6.95;2.10;;;22.30;52.90;;;;;;4917144;29;20024;-82
2022/09/05 18:06:14;;;;;;;6.15;1.85;;;22.10;53.70;;;;;;4913893;29;20357;-82
2022/09/05 18:08:49;;;;;;;7.13;2.10;;;22.10;53.60;;;;;;4914054;29;20032;-82
2022/09/05 18:11:20;;;;;;;6.65;2.10;;;22.00;53.70;;;;;;4914616;29;20024;-81
2022/09/05 18:14:04;;;;;;;4.45;2.15;;;22.00;54.10;;;;;;4899030;29;20036;-81
2022/09/05 18:16:46;;;;;;;4.40;2.22;;;21.90;53.90;;;;;;4923468;29;20047;-81
2022/09/05 18:19:12;;;;;;;3.63;1.95;;;21.80;54.10;;;;;;4915446;29;20128;-80
2022/09/05 18:21:58;;;;;;;4.25;2.08;;;21.70;54.40;;;;;;4916826;29;20043;-81
2022/09/05 18:25:04;;;;;;;3.40;2.10;;;21.60;54.80;;;;;;4896611;29;20055;-80
2022/09/05 18:27:48;;;;;;;7.72;2.33;;;21.50;54.80;;;;;;4912814;29;21374;-80
2022/09/05 18:30:17;;;;;;;4.65;1.98;;;21.50;54.90;;;;;;4908804;29;20142;-82
2022/09/05 18:32:51;;;;;;;5.95;2.00;;;21.40;55.20;;;;;;4913293;29;20036;-82
2022/09/05 18:35:30;;;;;;;4.75;2.05;;;21.30;55.20;;;;;;4911925;29;20111;-83
2022/09/05 18:38:00;;;;;;;2.97;2.00;;;21.20;55.30;;;;;;4892968;29;20051;-82
2022/09/05 18:40:29;;;;;;;3.22;2.10;;;21.20;55.30;;;;;;4913253;29;20025;-81
2022/09/05 18:42:55;;;;;;;5.22;2.15;;;21.10;55.70;;;;;;4910412;29;20062;-80
2022/09/05 18:45:22;;;;;;;4.57;1.92;;;21.10;55.30;;;;;;4914404;29;20476;-81
2022/09/05 18:47:54;;;;;;;5.30;2.17;;;21.10;55.20;;;;;;4909242;29;20191;-81
2022/09/05 18:50:23;;;;;;;2.78;1.92;;;21.00;55.20;;;;;;4911789;29;20443;-82
2022/09/05 18:52:53;;;;;;;3.80;1.80;;;21.00;55.20;;;;;;4913923;29;20028;-81
2022/09/05 18:55:22;;;;;;;3.13;1.77;;;21.00;55.10;;;;;;4915068;29;20477;-81
2022/09/05 18:57:55;;;;;;;3.80;2.20;;;21.00;55.30;;;;;;4911368;29;20447;-81
2022/09/05 19:00:32;;;;;;;4.47;1.85;;;20.90;55.10;;;;;;4907416;29;20036;-80
2022/09/05 19:03:11;;;;;;;3.47;1.70;;;20.90;55.30;;;;;;4910580;29;20112;-80